Blacksburg, SC

11:40 AM EDT on September 02, 2014 (GMT -0400)
KSCBLACK5 | Change Station
CLOSE
Current Station
Personal Weather Station
Location: Blacksburg, SC
Elevation: 785 ft
Nearby Weather Stations

Elev 785 ft 35.15 °N, 81.56 °W | Updated 9 minutes ago

Clear
Clear
88.4 °F
Feels Like 95 °F
N
0.0
Wind Variable Wind from South
Gusts 0.0 mph

Today
High -- | Low -- °F
--% Chance of Precip.
Yesterday
High -- | Low -- °F
Precip. -- in
6:59 AM 7:51 PM
First Quarter, 52% visible
Pressure 30.10 in
Visibility 10.0 miles
Clouds Clear
Heat Index 95 °F
Dew Point 72 °F
Humidity 58%
Rainfall 0.00 in
Snow Depth Not available.
UV 7 out of 12
Pollen 9.90 out of 12
Ozone Good
Flu Activity Not available.
METAR KEHO 021515Z AUTO 20005KT 10SM CLR 29/22 A3010 RMK AO2 T02880219

More Conditions Fewer Conditions

Pressure 30.10 in
Visibility 10.0 miles
Clouds Clear
Heat Index 95 °F
Dew Point 72 °F
Humidity 58%
Rainfall 0.00 in
Snow Depth Not available.
UV 7 out of 12
Pollen 9.90 out of 12
Ozone Good
Flu Activity Not available.
METAR KEHO 021515Z AUTO 20005KT 10SM CLR 29/22 A3010 RMK AO2 T02880219

More Conditions Fewer Conditions

10-Day Weather Forecast

Almanac

Astronomy

Sep. 02, 2014 Rise Set
Actual Time 6:59 AM EDT 7:51 PM EDT
Civil Twilight 6:33 AM EDT 8:17 PM EDT
Nautical Twilight 6:02 AM EDT 8:47 PM EDT
Astronomical Twilight 5:31 AM EDT 9:19 PM EDT
Moon 2:26 PM EDT 12:08 AM EDT
Length of Visible Light 13h 43m
Length of Day
12h 52m
Tomorrow will be 2m 7s shorter.
First Quarter, 52% of the Moon is Illuminated
Today
First Quarter
Sep 8
Full
Sep 15
Last Quarter
Sep 24
New
Oct 1
First Quarter

Today's Extremes

State Highs State Lows

Community

WunderPhotos

Upload Photos

1,749,705 photos uploaded!

Nearby

Air Quality

  Air Quality AQ Index Pollutant
Yesterday Good
OZONE
Current Good
OZONE
Tuesday Good
OZONE

Snow Depth

Station Depth Elevation
No new snow has been reported.

Earthquake Activity

City Distance Mag. Time & Date
No recent earthquake activity has been reported nearby.
Minimum magnitude displayed is 2.5.

Coastal Water Temperatures

Place Temperature
No Stations Reporting

Nearby Weather Stations